Time;durP1;ratioP1;P1;durP2;ratioP2;P2;SDS_P1;SDS_P2;PMS_P1;PMS_P2;Temp;Humidity;BMP_temperature;BMP_pressure;BME280_temperature;BME280_humidity;BME280_pressure;Samples;Min_cycle;Max_cycle;Signal;HPM_P1;HPM_P2
2023/02/19 00:01:21;;;;;;;;;;;9.60;99.90;;;;;;5072907;28;19909;-66
2023/02/19 00:03:51;;;;;;;;;;;9.70;99.90;;;;;;5072144;28;20377;-70
2023/02/19 00:06:17;;;;;;;;;;;9.60;99.90;;;;;;5068955;28;19996;-65
2023/02/19 00:08:43;;;;;;;;;;;9.80;99.90;;;;;;5086078;28;19913;-65
2023/02/19 00:11:13;;;;;;;;;;;9.90;99.90;;;;;;5072828;28;19923;-66
2023/02/19 00:13:39;;;;;;;;;;;10.00;99.90;;;;;;5079922;28;19922;-66
2023/02/19 00:16:06;;;;;;;;;;;10.00;99.90;;;;;;5075019;28;19908;-68
2023/02/19 00:18:32;;;;;;;;;;;10.00;99.90;;;;;;5082899;28;20440;-65
2023/02/19 00:20:57;;;;;;;;;;;10.00;99.90;;;;;;5073772;28;19913;-67
2023/02/19 00:23:23;;;;;;;;;;;10.10;99.90;;;;;;5068443;28;20010;-66
2023/02/19 00:25:49;;;;;;;;;;;10.00;99.90;;;;;;5078397;28;19916;-67
2023/02/19 00:28:15;;;;;;;;;;;10.00;99.90;;;;;;5091581;28;19974;-66
2023/02/19 00:30:40;;;;;;;;;;;9.90;99.90;;;;;;5073898;28;19955;-67
2023/02/19 00:33:07;;;;;;;;;;;10.00;99.90;;;;;;5085730;28;19917;-67
2023/02/19 00:35:33;;;;;;;;;;;10.00;99.90;;;;;;5084985;28;20314;-67
2023/02/19 00:37:59;;;;;;;;;;;10.00;99.90;;;;;;5074042;28;19965;-66
2023/02/19 00:40:25;;;;;;;;;;;10.00;99.90;;;;;;5073753;28;20342;-66
2023/02/19 00:42:50;;;;;;;;;;;9.90;99.90;;;;;;5075999;28;20520;-66
2023/02/19 00:45:16;;;;;;;;;;;9.90;99.90;;;;;;5080931;28;19908;-69
2023/02/19 00:47:42;;;;;;;;;;;9.80;99.90;;;;;;5076720;28;19994;-66
2023/02/19 00:50:08;;;;;;;;;;;9.80;99.90;;;;;;5085365;28;19908;-72
2023/02/19 00:52:33;;;;;;;;;;;9.80;99.90;;;;;;5074353;28;19913;-66
2023/02/19 00:54:59;;;;;;;;;;;9.80;99.90;;;;;;5073845;28;19916;-66
2023/02/19 00:57:25;;;;;;;;;;;9.70;99.90;;;;;;5074354;28;20540;-66
2023/02/19 00:59:50;;;;;;;;;;;9.80;99.90;;;;;;5074205;28;19913;-66
2023/02/19 01:02:16;;;;;;;;;;;9.80;99.90;;;;;;5074449;28;19909;-66
2023/02/19 01:04:42;;;;;;;;;;;9.80;99.90;;;;;;5061619;28;20617;-68
2023/02/19 01:07:07;;;;;;;;;;;9.80;99.90;;;;;;5074027;28;20366;-68
2023/02/19 01:09:33;;;;;;;;;;;9.90;99.90;;;;;;5084329;28;19981;-67
2023/02/19 01:11:59;;;;;;;;;;;9.80;99.90;;;;;;5071982;28;19962;-66
2023/02/19 01:14:24;;;;;;;;;;;9.80;99.90;;;;;;5079543;28;19951;-67
2023/02/19 01:16:50;;;;;;;;;;;9.80;99.90;;;;;;5080805;28;19916;-67
2023/02/19 01:19:16;;;;;;;;;;;9.90;99.90;;;;;;5076144;28;19908;-65
2023/02/19 01:21:41;;;;;;;;;;;9.90;99.90;;;;;;5074042;28;19916;-66
2023/02/19 01:24:07;;;;;;;;;;;9.80;99.90;;;;;;5078306;28;19909;-66
2023/02/19 01:26:33;;;;;;;;;;;9.70;99.90;;;;;;5071580;28;19916;-64
2023/02/19 01:28:59;;;;;;;;;;;9.70;99.90;;;;;;5077961;28;19908;-67
2023/02/19 01:31:25;;;;;;;;;;;9.70;99.90;;;;;;5074619;28;19908;-64
2023/02/19 01:33:56;;;;;;;;;;;9.60;99.90;;;;;;5082596;28;19908;-67
2023/02/19 01:36:21;;;;;;;;;;;9.50;99.90;;;;;;5081040;28;19912;-67
2023/02/19 01:38:48;;;;;;;;;;;9.50;99.90;;;;;;5069964;28;20268;-65
2023/02/19 01:41:15;;;;;;;;;;;9.40;99.90;;;;;;5071606;28;19924;-67
2023/02/19 01:43:59;;;;;;;;;;;9.50;99.90;;;;;;5062969;28;19912;-67
2023/02/19 01:46:32;;;;;;;;;;;9.60;99.90;;;;;;5079064;28;19915;-65
2023/02/19 01:48:59;;;;;;;;;;;9.70;99.90;;;;;;5071725;28;19909;-66
2023/02/19 01:51:26;;;;;;;;;;;9.70;99.90;;;;;;5077111;28;19991;-66
2023/02/19 01:53:54;;;;;;;;;;;9.60;99.90;;;;;;5064395;28;20310;-64
2023/02/19 01:56:21;;;;;;;;;;;9.50;99.90;;;;;;5064695;28;19913;-65
2023/02/19 01:58:46;;;;;;;;;;;9.50;99.90;;;;;;5067561;28;19912;-63
2023/02/19 02:01:12;;;;;;;;;;;9.40;99.90;;;;;;5080364;28;19947;-65
2023/02/19 02:03:39;;;;;;;;;;;9.50;99.90;;;;;;5087326;28;20324;-65
2023/02/19 02:06:12;;;;;;;;;;;9.80;99.90;;;;;;5068254;28;19912;-66
2023/02/19 02:11:22;;;;;;;;;;;9.80;99.90;;;;;;5070726;28;20023;-66
2023/02/19 02:13:48;;;;;;;;;;;9.70;99.90;;;;;;5062241;28;19917;-64
2023/02/19 02:16:20;;;;;;;;;;;9.60;99.90;;;;;;5079758;28;19909;-66
2023/02/19 02:18:51;;;;;;;;;;;9.50;99.90;;;;;;5073250;28;19909;-63
2023/02/19 02:21:25;;;;;;;;;;;9.40;99.90;;;;;;5063730;28;19921;-66
2023/02/19 02:24:00;;;;;;;;;;;9.40;99.90;;;;;;5065579;28;19912;-65
2023/02/19 02:26:35;;;;;;;;;;;9.40;99.90;;;;;;5064679;28;19913;-68
2023/02/19 02:29:25;;;;;;;;;;;9.40;99.90;;;;;;5067261;28;19920;-65
2023/02/19 02:31:57;;;;;;;;;;;9.40;99.90;;;;;;5072076;28;20392;-66
2023/02/19 02:34:26;;;;;;;;;;;9.40;99.90;;;;;;5079783;28;19999;-66
2023/02/19 02:36:53;;;;;;;;;;;9.50;99.90;;;;;;5079550;28;19995;-66
2023/02/19 02:39:20;;;;;;;;;;;9.50;99.90;;;;;;5075446;28;19917;-66
2023/02/19 02:42:26;;;;;;;;;;;9.50;99.90;;;;;;5072850;28;19912;-66
2023/02/19 02:44:39;;;;;;;;;;;9.50;99.90;;;;;;5088774;28;19913;-66
2023/02/19 02:47:05;;;;;;;;;;;9.60;99.90;;;;;;5057742;28;20007;-66
2023/02/19 02:49:32;;;;;;;;;;;9.80;99.90;;;;;;5074595;28;19936;-63
2023/02/19 02:55:01;;;;;;;;;;;9.80;99.90;;;;;;5075122;28;19916;-69
2023/02/19 02:55:05;;;;;;;;;;;9.60;99.90;;;;;;5079234;28;20004;-66
2023/02/19 02:57:30;;;;;;;;;;;9.70;99.90;;;;;;5071337;28;19916;-66
2023/02/19 02:59:56;;;;;;;;;;;9.60;99.90;;;;;;5070854;28;19915;-66
2023/02/19 03:02:24;;;;;;;;;;;9.70;99.90;;;;;;5066773;28;19915;-66
2023/02/19 03:07:54;;;;;;;;;;;9.80;99.90;;;;;;5079220;28;19953;-66
2023/02/19 03:10:38;;;;;;;;;;;9.80;99.90;;;;;;5070871;28;19958;-68
2023/02/19 03:21:24;;;;;;;;;;;9.70;99.90;;;;;;5073614;28;19923;-66
2023/02/19 03:26:35;;;;;;;;;;;9.70;99.90;;;;;;5070429;28;19916;-66
2023/02/19 03:31:46;;;;;;;;;;;9.60;99.90;;;;;;5059964;28;20427;-66
2023/02/19 03:34:19;;;;;;;;;;;9.70;99.90;;;;;;5061166;28;19935;-66
2023/02/19 03:36:51;;;;;;;;;;;9.70;99.90;;;;;;5061968;28;19920;-63
2023/02/19 03:39:19;;;;;;;;;;;9.60;99.90;;;;;;5064209;28;19956;-66
2023/02/19 03:41:54;;;;;;;;;;;9.80;99.90;;;;;;5065126;28;20005;-66
2023/02/19 03:44:32;;;;;;;;;;;9.80;99.90;;;;;;5061564;28;19989;-66
2023/02/19 03:47:04;;;;;;;;;;;9.80;99.90;;;;;;5059861;28;19924;-66
2023/02/19 03:49:45;;;;;;;;;;;9.90;99.90;;;;;;5061888;28;19925;-66
2023/02/19 03:52:43;;;;;;;;;;;10.00;99.90;;;;;;5058606;28;19931;-65
2023/02/19 03:55:28;;;;;;;;;;;10.10;99.90;;;;;;5021042;28;19916;-67
2023/02/19 03:58:14;;;;;;;;;;;10.00;99.90;;;;;;5061030;28;19916;-66
2023/02/19 04:00:42;;;;;;;;;;;10.00;99.90;;;;;;5061771;28;19913;-66
2023/02/19 04:03:43;;;;;;;;;;;10.10;99.90;;;;;;5059404;28;20003;-65
2023/02/19 04:06:12;;;;;;;;;;;10.10;99.90;;;;;;4970480;28;19913;-67
2023/02/19 04:08:39;;;;;;;;;;;9.90;99.90;;;;;;5045058;28;19920;-66
2023/02/19 04:11:06;;;;;;;;;;;9.80;99.90;;;;;;5059323;28;19913;-66
2023/02/19 04:13:35;;;;;;;;;;;10.00;99.90;;;;;;5062488;28;19920;-65
2023/02/19 04:16:06;;;;;;;;;;;10.00;99.90;;;;;;5058398;28;20010;-65
2023/02/19 04:18:35;;;;;;;;;;;10.00;99.90;;;;;;5061094;28;20066;-66
2023/02/19 04:21:01;;;;;;;;;;;9.90;99.90;;;;;;5061995;28;19912;-65
2023/02/19 04:23:31;;;;;;;;;;;10.00;99.90;;;;;;5060306;28;20287;-65
2023/02/19 04:25:58;;;;;;;;;;;10.10;99.90;;;;;;5047023;28;19975;-66
2023/02/19 04:28:24;;;;;;;;;;;10.00;99.90;;;;;;5059226;28;19927;-68
2023/02/19 04:30:50;;;;;;;;;;;9.90;99.90;;;;;;5060533;28;19941;-67
2023/02/19 04:33:15;;;;;;;;;;;9.90;99.90;;;;;;5060823;28;19916;-66
2023/02/19 04:35:41;;;;;;;;;;;9.80;99.90;;;;;;5062318;28;19920;-66
2023/02/19 04:38:07;;;;;;;;;;;9.80;99.90;;;;;;5061316;28;19913;-66
2023/02/19 04:40:33;;;;;;;;;;;9.80;99.90;;;;;;5057576;28;19917;-66
2023/02/19 04:42:58;;;;;;;;;;;9.90;99.90;;;;;;5061764;28;20279;-65
2023/02/19 04:45:24;;;;;;;;;;;10.00;99.90;;;;;;5058230;28;20354;-66
2023/02/19 04:47:50;;;;;;;;;;;9.90;99.90;;;;;;5062669;28;20059;-65
2023/02/19 04:50:15;;;;;;;;;;;10.00;99.90;;;;;;5057849;28;19913;-67
2023/02/19 04:52:41;;;;;;;;;;;10.10;99.90;;;;;;5052571;28;19921;-67
2023/02/19 04:55:07;;;;;;;;;;;10.00;99.90;;;;;;5057115;28;20325;-67
2023/02/19 04:57:33;;;;;;;;;;;9.90;99.90;;;;;;5059139;28;19916;-66
2023/02/19 04:59:59;;;;;;;;;;;9.80;99.90;;;;;;5060348;28;19920;-67
2023/02/19 05:02:25;;;;;;;;;;;9.70;99.90;;;;;;5056544;28;20593;-67
2023/02/19 05:04:50;;;;;;;;;;;9.70;99.90;;;;;;5053974;28;20294;-67
2023/02/19 05:07:17;;;;;;;;;;;9.70;99.90;;;;;;5067150;28;20504;-67
2023/02/19 05:09:43;;;;;;;;;;;9.70;99.90;;;;;;5055803;28;19927;-66
2023/02/19 05:12:08;;;;;;;;;;;9.70;99.90;;;;;;5056417;28;19916;-67
2023/02/19 05:14:37;;;;;;;;;;;9.60;99.90;;;;;;5057025;28;20038;-67
2023/02/19 05:17:03;;;;;;;;;;;9.60;99.90;;;;;;5056616;28;20007;-66
2023/02/19 05:19:29;;;;;;;;;;;9.60;99.90;;;;;;5052868;28;20011;-67
2023/02/19 05:21:54;;;;;;;;;;;9.70;99.90;;;;;;5056555;28;19970;-67
2023/02/19 05:24:20;;;;;;;;;;;9.80;99.90;;;;;;5061479;28;19913;-67
2023/02/19 05:26:47;;;;;;;;;;;9.70;99.90;;;;;;5058307;28;19935;-67
2023/02/19 05:29:12;;;;;;;;;;;9.70;99.90;;;;;;5058304;28;20308;-66
2023/02/19 05:31:38;;;;;;;;;;;9.70;99.90;;;;;;5057179;28;19912;-67
2023/02/19 05:34:04;;;;;;;;;;;9.70;99.90;;;;;;5057073;28;19917;-67
2023/02/19 05:36:30;;;;;;;;;;;9.60;99.90;;;;;;5052908;28;19956;-66
2023/02/19 05:38:56;;;;;;;;;;;9.60;99.90;;;;;;5057479;28;19920;-66
2023/02/19 05:41:23;;;;;;;;;;;9.50;99.90;;;;;;5055545;28;19912;-67
2023/02/19 05:43:49;;;;;;;;;;;9.50;99.90;;;;;;5059479;28;19985;-67
2023/02/19 05:46:16;;;;;;;;;;;9.60;99.90;;;;;;5054034;28;19956;-66
2023/02/19 05:48:41;;;;;;;;;;;9.60;99.90;;;;;;5068139;28;19921;-67
2023/02/19 05:51:09;;;;;;;;;;;9.70;99.90;;;;;;5056482;28;19919;-67
2023/02/19 05:53:35;;;;;;;;;;;9.60;99.90;;;;;;5054905;28;19939;-67
2023/02/19 05:56:01;;;;;;;;;;;9.60;99.90;;;;;;5053721;28;19920;-66
2023/02/19 05:58:26;;;;;;;;;;;9.50;99.90;;;;;;5056661;28;19912;-67
2023/02/19 06:00:52;;;;;;;;;;;9.60;99.90;;;;;;5054393;28;19928;-66
2023/02/19 06:03:18;;;;;;;;;;;9.60;99.90;;;;;;5055502;28;19919;-67
2023/02/19 06:05:44;;;;;;;;;;;9.60;99.90;;;;;;5065471;28;19912;-66
2023/02/19 06:08:13;;;;;;;;;;;9.60;99.90;;;;;;5059842;28;19919;-67
2023/02/19 06:10:41;;;;;;;;;;;9.70;99.90;;;;;;5056737;28;19912;-66
2023/02/19 06:13:08;;;;;;;;;;;9.60;99.90;;;;;;5055536;28;19947;-66
2023/02/19 06:15:34;;;;;;;;;;;9.60;99.90;;;;;;5059233;28;19916;-67
2023/02/19 06:18:00;;;;;;;;;;;9.60;99.90;;;;;;5057669;28;19920;-66
2023/02/19 06:20:26;;;;;;;;;;;9.60;99.90;;;;;;5057775;28;19924;-66
2023/02/19 06:22:51;;;;;;;;;;;9.60;99.90;;;;;;5055730;28;19962;-67
2023/02/19 06:25:18;;;;;;;;;;;9.60;99.90;;;;;;5066398;28;19916;-67
2023/02/19 06:27:43;;;;;;;;;;;9.60;99.90;;;;;;5063388;28;19966;-67
2023/02/19 06:30:10;;;;;;;;;;;9.70;99.90;;;;;;5064077;28;20433;-67
2023/02/19 06:32:35;;;;;;;;;;;9.80;99.90;;;;;;5053048;28;19921;-67
2023/02/19 06:35:01;;;;;;;;;;;9.90;99.90;;;;;;5060115;28;19920;-66
2023/02/19 06:37:27;;;;;;;;;;;9.80;99.90;;;;;;5054214;28;19919;-66
2023/02/19 06:39:53;;;;;;;;;;;9.70;99.90;;;;;;5059049;28;19996;-66
2023/02/19 06:42:19;;;;;;;;;;;9.70;99.90;;;;;;5057353;28;19912;-66
2023/02/19 06:44:44;;;;;;;;;;;9.70;99.90;;;;;;5061481;28;19938;-64
2023/02/19 06:47:10;;;;;;;;;;;9.80;99.90;;;;;;5069824;28;19935;-65
2023/02/19 06:49:37;;;;;;;;;;;9.90;99.90;;;;;;5071186;28;19908;-66
2023/02/19 06:52:03;;;;;;;;;;;10.00;99.90;;;;;;5080285;28;20015;-66
2023/02/19 06:54:30;;;;;;;;;;;10.00;99.90;;;;;;5082115;28;19974;-66
2023/02/19 06:56:57;;;;;;;;;;;10.10;99.90;;;;;;5072214;28;19912;-66
2023/02/19 06:59:23;;;;;;;;;;;10.10;99.90;;;;;;5064964;28;19920;-66
2023/02/19 07:01:49;;;;;;;;;;;10.10;99.90;;;;;;5078666;28;20274;-66
2023/02/19 07:04:15;;;;;;;;;;;10.10;99.90;;;;;;5080535;28;19908;-65
2023/02/19 07:06:40;;;;;;;;;;;10.00;99.90;;;;;;5076919;28;19908;-65
2023/02/19 07:09:07;;;;;;;;;;;10.00;99.90;;;;;;5083678;28;19909;-66
2023/02/19 07:11:34;;;;;;;;;;;9.90;99.90;;;;;;5073763;28;20259;-66
2023/02/19 07:14:01;;;;;;;;;;;10.00;99.90;;;;;;5074813;28;19912;-66
2023/02/19 07:16:27;;;;;;;;;;;10.00;99.90;;;;;;5074109;28;19920;-66
2023/02/19 07:18:55;;;;;;;;;;;10.00;99.90;;;;;;5075214;28;19913;-67
2023/02/19 07:21:20;;;;;;;;;;;10.10;99.90;;;;;;5078050;28;19949;-66
2023/02/19 07:23:46;;;;;;;;;;;10.10;99.90;;;;;;5079708;28;19909;-66
2023/02/19 07:26:13;;;;;;;;;;;10.10;99.90;;;;;;5075380;28;19955;-67
2023/02/19 07:28:39;;;;;;;;;;;10.00;99.90;;;;;;5078531;28;19909;-66
2023/02/19 07:31:05;;;;;;;;;;;9.90;99.90;;;;;;5058623;28;20007;-66
2023/02/19 07:33:31;;;;;;;;;;;9.90;99.90;;;;;;5060836;28;20437;-66
2023/02/19 07:35:57;;;;;;;;;;;9.90;99.90;;;;;;5061937;28;19912;-65
2023/02/19 07:38:23;;;;;;;;;;;10.00;99.90;;;;;;5060159;28;19921;-67
2023/02/19 07:40:53;;;;;;;;;;;10.00;99.90;;;;;;5065215;28;20051;-67
2023/02/19 07:43:19;;;;;;;;;;;10.00;99.90;;;;;;5061257;28;19916;-65
2023/02/19 07:45:44;;;;;;;;;;;10.10;99.90;;;;;;5060209;28;19920;-66
2023/02/19 07:48:10;;;;;;;;;;;10.20;99.90;;;;;;5059520;28;19912;-66
2023/02/19 07:50:36;;;;;;;;;;;10.20;99.90;;;;;;5058194;28;19920;-65
2023/02/19 07:53:02;;;;;;;;;;;10.20;99.90;;;;;;5061733;28;19921;-66
2023/02/19 07:55:27;;;;;;;;;;;10.20;99.90;;;;;;5057501;28;19921;-66
2023/02/19 07:57:53;;;;;;;;;;;10.40;99.90;;;;;;5060831;28;20279;-66
2023/02/19 08:00:19;;;;;;;;;;;10.40;99.90;;;;;;5060627;28;19924;-65
2023/02/19 08:03:00;;;;;;;;;;;10.40;99.90;;;;;;5063053;28;19963;-66
2023/02/19 08:05:30;;;;;;;;;;;10.30;99.90;;;;;;5063446;28;20025;-67
2023/02/19 08:07:56;;;;;;;;;;;10.40;99.90;;;;;;5061820;28;20386;-66
2023/02/19 08:13:18;;;;;;;;;;;10.40;99.90;;;;;;5059641;28;19924;-67
2023/02/19 08:15:47;;;;;;;;;;;10.40;99.90;;;;;;5060688;28;19921;-66
2023/02/19 08:18:13;;;;;;;;;;;10.40;99.90;;;;;;5060499;28;19928;-66
2023/02/19 08:20:39;;;;;;;;;;;10.40;99.90;;;;;;5062058;28;19999;-67
2023/02/19 08:23:05;;;;;;;;;;;10.30;99.90;;;;;;5062452;28;19993;-66
2023/02/19 08:25:31;;;;;;;;;;;10.20;99.90;;;;;;5065529;28;19919;-66
2023/02/19 08:27:59;;;;;;;;;;;10.20;99.90;;;;;;5061517;28;19917;-66
2023/02/19 08:30:25;;;;;;;;;;;10.20;99.90;;;;;;5062339;28;19920;-66
2023/02/19 08:32:51;;;;;;;;;;;10.20;99.90;;;;;;5069458;28;19917;-67
2023/02/19 08:35:17;;;;;;;;;;;10.20;99.90;;;;;;5063739;28;20007;-67
2023/02/19 08:37:42;;;;;;;;;;;10.30;99.90;;;;;;5060403;28;19948;-65
2023/02/19 08:40:08;;;;;;;;;;;10.30;99.90;;;;;;5060471;28;20327;-68
2023/02/19 08:42:34;;;;;;;;;;;10.30;99.90;;;;;;5060319;28;19917;-66
2023/02/19 08:45:00;;;;;;;;;;;10.40;99.90;;;;;;5060325;28;19926;-67
2023/02/19 08:47:25;;;;;;;;;;;10.50;99.90;;;;;;5060237;28;19967;-67
2023/02/19 08:49:51;;;;;;;;;;;10.70;99.90;;;;;;5057002;28;19913;-67
2023/02/19 08:52:17;;;;;;;;;;;10.60;99.90;;;;;;5057868;28;19924;-66
2023/02/19 08:54:42;;;;;;;;;;;10.60;99.90;;;;;;5061108;28;19920;-66
2023/02/19 08:57:08;;;;;;;;;;;10.50;99.90;;;;;;5060379;28;19916;-66
2023/02/19 08:59:33;;;;;;;;;;;10.60;99.90;;;;;;5063967;28;20320;-67
2023/02/19 09:01:59;;;;;;;;;;;10.60;99.90;;;;;;5074845;28;20369;-66
2023/02/19 09:04:25;;;;;;;;;;;10.70;99.90;;;;;;5067571;28;19924;-67
2023/02/19 09:06:51;;;;;;;;;;;10.60;99.90;;;;;;5068019;28;20279;-67
2023/02/19 09:09:17;;;;;;;;;;;10.70;99.90;;;;;;5067686;28;19913;-66
2023/02/19 09:11:43;;;;;;;;;;;10.80;99.90;;;;;;5067969;28;20380;-65
2023/02/19 09:14:08;;;;;;;;;;;10.80;99.90;;;;;;5073396;28;20003;-65
2023/02/19 09:16:34;;;;;;;;;;;10.70;99.90;;;;;;5069523;28;20061;-66
2023/02/19 09:19:00;;;;;;;;;;;10.70;99.90;;;;;;5069657;28;19962;-67
2023/02/19 09:21:26;;;;;;;;;;;10.80;99.90;;;;;;5070406;28;20005;-70
2023/02/19 09:23:51;;;;;;;;;;;10.80;99.90;;;;;;5069551;28;19920;-70
2023/02/19 09:26:17;;;;;;;;;;;10.70;99.90;;;;;;5064730;28;19919;-67
2023/02/19 09:28:43;;;;;;;;;;;10.70;99.90;;;;;;5068516;28;19995;-67
2023/02/19 09:31:10;;;;;;;;;;;10.70;99.90;;;;;;5068388;28;20254;-67
2023/02/19 09:33:35;;;;;;;;;;;10.80;99.90;;;;;;5066454;28;19921;-66
2023/02/19 09:36:01;;;;;;;;;;;11.10;99.90;;;;;;5070303;28;19955;-67
2023/02/19 09:38:29;;;;;;;;;;;11.10;99.90;;;;;;5072709;28;19969;-72
2023/02/19 09:40:56;;;;;;;;;;;11.00;99.90;;;;;;5069362;28;20352;-64
2023/02/19 09:43:22;;;;;;;;;;;10.90;99.90;;;;;;5072892;28;19923;-68
2023/02/19 09:45:50;;;;;;;;;;;10.80;99.90;;;;;;5070496;28;19959;-68
2023/02/19 09:48:16;;;;;;;;;;;10.70;99.90;;;;;;5070446;28;19965;-66
2023/02/19 09:50:44;;;;;;;;;;;10.70;99.90;;;;;;5071111;28;19912;-66
2023/02/19 09:53:19;;;;;;;;;;;10.60;99.90;;;;;;5073110;28;19991;-65
2023/02/19 09:55:44;;;;;;;;;;;10.60;99.90;;;;;;5067665;28;19999;-66
2023/02/19 09:58:13;;;;;;;;;;;10.60;99.90;;;;;;5079549;28;20008;-71
2023/02/19 10:00:39;;;;;;;;;;;10.60;99.90;;;;;;5069743;28;19908;-67
2023/02/19 10:03:06;;;;;;;;;;;10.60;99.90;;;;;;5074154;28;19955;-69
2023/02/19 10:05:33;;;;;;;;;;;10.80;99.90;;;;;;5064353;28;19917;-68
2023/02/19 10:07:59;;;;;;;;;;;10.80;99.90;;;;;;5070261;28;19911;-64
2023/02/19 10:10:29;;;;;;;;;;;10.90;99.90;;;;;;5073100;28;19925;-67
2023/02/19 10:12:58;;;;;;;;;;;11.00;99.90;;;;;;5068650;28;19920;-67
2023/02/19 10:15:28;;;;;;;;;;;11.10;99.90;;;;;;5056576;28;19998;-68
2023/02/19 10:17:54;;;;;;;;;;;11.10;99.90;;;;;;5064429;28;19912;-67
2023/02/19 10:20:25;;;;;;;;;;;11.10;99.90;;;;;;5076100;28;19913;-67
2023/02/19 10:22:56;;;;;;;;;;;11.10;99.90;;;;;;5075638;28;19985;-67
2023/02/19 10:25:22;;;;;;;;;;;11.10;99.90;;;;;;5074093;28;19913;-67
2023/02/19 10:27:48;;;;;;;;;;;11.10;99.90;;;;;;5070564;28;19922;-67
2023/02/19 10:30:18;;;;;;;;;;;11.00;99.90;;;;;;5067117;28;19913;-66
2023/02/19 10:32:59;;;;;;;;;;;11.00;99.90;;;;;;5068194;28;19917;-66
2023/02/19 10:35:25;;;;;;;;;;;11.00;99.90;;;;;;5070297;28;19932;-66
2023/02/19 10:37:51;;;;;;;;;;;11.00;99.90;;;;;;5071044;28;19913;-67
2023/02/19 10:40:21;;;;;;;;;;;11.00;99.90;;;;;;5068039;28;19913;-67
2023/02/19 10:42:48;;;;;;;;;;;11.00;99.90;;;;;;5066538;28;19920;-67
2023/02/19 10:45:24;;;;;;;;;;;11.00;99.90;;;;;;5081496;28;19915;-66
2023/02/19 10:47:50;;;;;;;;;;;11.00;99.90;;;;;;5075288;28;20015;-66
2023/02/19 10:50:33;;;;;;;;;;;11.00;99.90;;;;;;5069519;28;19960;-67
2023/02/19 10:52:59;;;;;;;;;;;11.10;99.90;;;;;;5070929;28;19917;-67
2023/02/19 10:55:27;;;;;;;;;;;11.20;99.90;;;;;;5079132;28;19972;-67
2023/02/19 10:57:53;;;;;;;;;;;11.20;99.90;;;;;;5075155;28;20378;-67
2023/02/19 11:00:25;;;;;;;;;;;11.20;99.90;;;;;;5073608;28;19919;-66
2023/02/19 11:03:11;;;;;;;;;;;11.30;99.90;;;;;;5079780;28;19940;-65
2023/02/19 11:05:40;;;;;;;;;;;11.30;99.90;;;;;;5067798;28;19912;-67
2023/02/19 11:08:19;;;;;;;;;;;11.30;99.90;;;;;;5072037;28;20374;-67
2023/02/19 11:10:46;;;;;;;;;;;11.30;99.90;;;;;;5068472;28;20344;-66
2023/02/19 11:13:14;;;;;;;;;;;11.30;99.90;;;;;;5072966;28;19981;-67
2023/02/19 11:15:40;;;;;;;;;;;11.20;99.90;;;;;;5067908;28;20367;-66
2023/02/19 11:18:06;;;;;;;;;;;11.20;99.90;;;;;;5076621;28;19960;-66
2023/02/19 11:20:31;;;;;;;;;;;11.20;99.90;;;;;;5075269;28;19970;-67
2023/02/19 11:23:02;;;;;;;;;;;11.30;99.90;;;;;;5082584;28;19916;-66
2023/02/19 11:25:28;;;;;;;;;;;11.20;99.90;;;;;;5078925;28;20465;-67
2023/02/19 11:28:07;;;;;;;;;;;11.20;99.90;;;;;;5081353;28;19909;-67
2023/02/19 11:30:35;;;;;;;;;;;11.20;99.90;;;;;;5078536;28;19923;-67
2023/02/19 11:33:16;;;;;;;;;;;11.30;99.90;;;;;;5068577;28;19960;-66
2023/02/19 11:35:48;;;;;;;;;;;11.20;99.90;;;;;;5063173;28;20390;-66
2023/02/19 11:38:16;;;;;;;;;;;11.30;99.90;;;;;;5072792;28;20326;-67
2023/02/19 11:40:45;;;;;;;;;;;11.20;99.90;;;;;;5075074;28;19938;-66
2023/02/19 11:43:23;;;;;;;;;;;11.30;99.90;;;;;;5071041;28;20003;-66
2023/02/19 11:46:08;;;;;;;;;;;11.30;99.90;;;;;;5072981;28;19920;-66
2023/02/19 11:48:37;;;;;;;;;;;11.20;99.90;;;;;;5074840;28;19951;-65
2023/02/19 11:51:02;;;;;;;;;;;11.30;99.90;;;;;;5073947;28;19912;-67
2023/02/19 11:53:31;;;;;;;;;;;11.40;99.90;;;;;;5069350;28;19923;-68
2023/02/19 11:56:15;;;;;;;;;;;11.50;99.90;;;;;;5063284;28;20452;-67
2023/02/19 11:58:46;;;;;;;;;;;11.40;99.90;;;;;;5074690;28;19959;-67
2023/02/19 12:01:12;;;;;;;;;;;11.30;99.90;;;;;;5073536;28;19916;-67
2023/02/19 12:03:47;;;;;;;;;;;11.40;99.90;;;;;;5074860;28;19966;-66
2023/02/19 12:06:21;;;;;;;;;;;11.30;99.90;;;;;;5068960;28;20182;-67
2023/02/19 12:08:47;;;;;;;;;;;11.30;99.90;;;;;;5074512;28;19962;-67
2023/02/19 12:11:33;;;;;;;;;;;11.30;99.90;;;;;;5066186;28;19920;-67
2023/02/19 12:14:05;;;;;;;;;;;11.30;99.90;;;;;;5063200;28;20392;-66
2023/02/19 12:16:37;;;;;;;;;;;11.30;99.90;;;;;;5065753;28;19963;-66
2023/02/19 12:19:03;;;;;;;;;;;11.30;99.90;;;;;;5076652;28;19917;-66
2023/02/19 12:21:28;;;;;;;;;;;11.20;99.90;;;;;;5062317;28;20011;-64
2023/02/19 12:23:56;;;;;;;;;;;11.30;99.90;;;;;;5069652;28;19919;-67
2023/02/19 12:26:32;;;;;;;;;;;11.10;99.90;;;;;;5067370;28;19913;-67
2023/02/19 12:29:06;;;;;;;;;;;11.10;99.90;;;;;;5070057;28;20013;-67
2023/02/19 12:31:50;;;;;;;;;;;11.00;99.90;;;;;;5065084;28;19912;-66
2023/02/19 12:34:26;;;;;;;;;;;11.20;99.90;;;;;;5073269;28;20389;-67
2023/02/19 12:36:58;;;;;;;;;;;11.20;99.90;;;;;;5063831;28;19944;-67
2023/02/19 12:39:26;;;;;;;;;;;11.20;99.90;;;;;;5070127;28;19916;-66
2023/02/19 12:42:04;;;;;;;;;;;11.20;99.90;;;;;;5067351;28;19912;-67
2023/02/19 12:44:34;;;;;;;;;;;11.10;99.90;;;;;;5066690;28;19921;-66
2023/02/19 12:47:02;;;;;;;;;;;11.20;99.90;;;;;;5070821;28;19912;-68
2023/02/19 12:49:43;;;;;;;;;;;11.20;99.90;;;;;;5053677;28;19924;-67
2023/02/19 12:52:12;;;;;;;;;;;11.30;99.90;;;;;;5070910;28;19920;-66
2023/02/19 12:54:40;;;;;;;;;;;11.30;99.90;;;;;;5045492;28;20306;-66
2023/02/19 12:57:24;;;;;;;;;;;11.20;99.90;;;;;;5069207;28;19948;-66
2023/02/19 12:59:54;;;;;;;;;;;11.20;99.90;;;;;;5071829;28;19945;-66
2023/02/19 13:02:25;;;;;;;;;;;11.10;99.90;;;;;;5069960;28;20286;-66
2023/02/19 13:05:04;;;;;;;;;;;11.10;99.90;;;;;;5067865;28;19915;-66
2023/02/19 13:07:32;;;;;;;;;;;11.00;99.90;;;;;;5072672;28;19913;-67
2023/02/19 13:10:03;;;;;;;;;;;11.10;99.90;;;;;;5073374;28;19944;-65
2023/02/19 13:12:32;;;;;;;;;;;11.10;99.90;;;;;;5049805;28;19962;-68
2023/02/19 13:15:00;;;;;;;;;;;11.10;99.90;;;;;;5061805;28;20342;-66
2023/02/19 13:17:26;;;;;;;;;;;11.10;99.90;;;;;;5075117;28;19912;-66
2023/02/19 13:19:54;;;;;;;;;;;11.20;99.90;;;;;;5076730;28;19966;-66
2023/02/19 13:25:16;;;;;;;;;;;11.10;99.90;;;;;;5079236;28;19923;-66
2023/02/19 13:27:48;;;;;;;;;;;11.10;99.90;;;;;;5076375;28;19908;-66
2023/02/19 13:30:16;;;;;;;;;;;11.20;99.90;;;;;;5058767;28;20267;-66
2023/02/19 13:32:58;;;;;;;;;;;11.30;99.90;;;;;;5071756;28;19934;-66
2023/02/19 13:35:24;;;;;;;;;;;11.30;99.90;;;;;;5076206;28;19912;-66
2023/02/19 13:37:50;;;;;;;;;;;11.30;99.90;;;;;;5076374;28;20354;-67
2023/02/19 13:40:35;;;;;;;;;;;11.30;99.90;;;;;;5076250;28;19908;-67
2023/02/19 13:43:19;;;;;;;;;;;11.30;99.90;;;;;;5071271;28;19944;-66
2023/02/19 13:45:45;;;;;;;;;;;11.20;99.90;;;;;;5059022;28;20004;-66
2023/02/19 13:48:23;;;;;;;;;;;11.10;99.90;;;;;;5069856;28;19948;-66
2023/02/19 13:50:50;;;;;;;;;;;11.00;99.90;;;;;;5050247;28;19913;-65
2023/02/19 13:53:34;;;;;;;;;;;10.90;99.90;;;;;;5067685;28;19970;-64
2023/02/19 13:55:59;;;;;;;;;;;11.00;99.90;;;;;;5071641;28;20271;-66
2023/02/19 13:58:31;;;;;;;;;;;11.00;99.90;;;;;;5050923;28;19920;-66
2023/02/19 14:01:05;;;;;;;;;;;11.00;99.90;;;;;;5058332;28;19912;-66
2023/02/19 14:03:33;;;;;;;;;;;11.10;99.90;;;;;;5065148;28;19913;-67
2023/02/19 14:06:01;;;;;;;;;;;11.10;99.90;;;;;;5064661;28;19935;-66
2023/02/19 14:08:42;;;;;;;;;;;11.10;99.90;;;;;;5071656;28;19913;-66
2023/02/19 14:11:07;;;;;;;;;;;11.10;99.90;;;;;;5071105;28;19935;-64
2023/02/19 14:13:48;;;;;;;;;;;11.10;99.90;;;;;;5069768;28;20373;-65
2023/02/19 14:16:33;;;;;;;;;;;11.20;99.90;;;;;;5067320;28;19912;-66
2023/02/19 14:18:59;;;;;;;;;;;11.10;99.90;;;;;;5072238;28;20507;-66
2023/02/19 14:21:37;;;;;;;;;;;11.20;99.90;;;;;;5071930;28;20003;-66
2023/02/19 14:24:03;;;;;;;;;;;11.20;99.90;;;;;;5072511;28;20134;-66
2023/02/19 14:26:30;;;;;;;;;;;11.20;99.90;;;;;;5066670;28;19976;-66
2023/02/19 14:28:56;;;;;;;;;;;11.20;99.90;;;;;;5067667;28;20427;-66
2023/02/19 14:31:28;;;;;;;;;;;11.30;99.90;;;;;;5070884;28;19955;-66
2023/02/19 14:34:23;;;;;;;;;;;11.40;99.90;;;;;;5070577;28;20001;-66
2023/02/19 14:36:52;;;;;;;;;;;11.40;99.90;;;;;;5065509;28;19913;-66
2023/02/19 14:39:17;;;;;;;;;;;11.30;99.90;;;;;;5071803;28;19912;-67
2023/02/19 14:41:45;;;;;;;;;;;11.30;99.90;;;;;;5071845;28;19916;-66
2023/02/19 14:44:16;;;;;;;;;;;11.30;99.90;;;;;;5069471;28;20282;-66
2023/02/19 14:46:49;;;;;;;;;;;11.30;99.90;;;;;;5045958;28;19920;-66
2023/02/19 14:49:27;;;;;;;;;;;11.20;99.90;;;;;;5065971;28;19912;-66
2023/02/19 14:51:56;;;;;;;;;;;11.20;99.90;;;;;;5053087;28;19917;-66
2023/02/19 14:54:31;;;;;;;;;;;11.20;99.90;;;;;;5072430;28;19916;-66
2023/02/19 14:56:57;;;;;;;;;;;11.10;99.90;;;;;;5071659;28;19909;-66